Time;durP1;ratioP1;P1;durP2;ratioP2;P2;SDS_P1;SDS_P2;PMS_P1;PMS_P2;Temp;Humidity;BMP_temperature;BMP_pressure;BME280_temperature;BME280_humidity;BME280_pressure;Samples;Min_cycle;Max_cycle;Signal;HPM_P1;HPM_P2
2023/12/09 00:02:58;;;;;;;11.30;4.07;;;8.80;99.90;;;;;;10438688;28;20270;-67
2023/12/09 00:08:01;;;;;;;7.20;3.60;;;8.80;99.90;;;;;;10449622;28;20207;-63
2023/12/09 00:13:05;;;;;;;9.50;3.63;;;8.80;99.90;;;;;;10452415;28;20283;-63
2023/12/09 00:18:10;;;;;;;11.50;3.53;;;8.80;99.90;;;;;;10450437;28;20262;-65
2023/12/09 00:23:14;;;;;;;7.03;3.40;;;8.80;99.90;;;;;;10414661;28;20630;-65
2023/12/09 00:28:18;;;;;;;9.23;3.87;;;8.80;99.90;;;;;;10429335;28;20254;-64
2023/12/09 00:33:23;;;;;;;11.63;3.67;;;8.80;99.90;;;;;;10450963;28;20292;-64
2023/12/09 00:38:27;;;;;;;8.50;3.50;;;8.80;99.90;;;;;;10449595;28;20246;-65
2023/12/09 00:43:30;;;;;;;10.97;3.90;;;8.80;99.90;;;;;;10437705;28;20235;-64
2023/12/09 00:48:35;;;;;;;10.73;3.50;;;8.90;99.90;;;;;;10453678;28;20203;-65
2023/12/09 00:53:39;;;;;;;10.27;3.57;;;8.90;99.90;;;;;;10452568;28;20227;-64
2023/12/09 00:58:43;;;;;;;9.77;4.13;;;8.90;99.90;;;;;;10443719;28;21010;-64
2023/12/09 01:03:47;;;;;;;11.93;4.10;;;8.90;99.90;;;;;;10468463;28;20216;-64
2023/12/09 01:08:51;;;;;;;8.63;3.87;;;8.90;99.90;;;;;;10444964;28;20220;-65
2023/12/09 01:13:55;;;;;;;11.47;3.20;;;8.80;99.90;;;;;;10449215;28;20220;-63
2023/12/09 01:19:00;;;;;;;10.83;3.73;;;8.90;99.90;;;;;;10413518;28;20200;-65
2023/12/09 01:24:04;;;;;;;10.07;3.40;;;8.90;99.90;;;;;;10443220;28;20211;-64
2023/12/09 01:29:08;;;;;;;9.23;3.57;;;8.90;99.90;;;;;;10460440;28;20242;-63
2023/12/09 01:34:13;;;;;;;8.23;3.23;;;8.90;99.90;;;;;;10443016;28;20224;-63
2023/12/09 01:39:17;;;;;;;7.57;3.10;;;8.90;99.90;;;;;;10448065;28;20243;-64
2023/12/09 01:44:24;;;;;;;8.57;2.93;;;8.90;99.90;;;;;;10433451;28;20219;-63
2023/12/09 01:49:32;;;;;;;12.10;4.17;;;8.90;99.90;;;;;;10415090;28;20199;-68
2023/12/09 01:54:36;;;;;;;11.10;3.10;;;8.90;99.90;;;;;;10451322;28;20220;-67
2023/12/09 01:59:39;;;;;;;9.10;3.40;;;8.90;99.90;;;;;;10456072;28;20213;-68
2023/12/09 02:04:44;;;;;;;13.03;3.70;;;8.90;99.90;;;;;;10452887;28;20253;-68
2023/12/09 02:09:48;;;;;;;8.23;3.20;;;8.90;99.90;;;;;;10407237;28;20243;-68
2023/12/09 02:14:59;;;;;;;10.00;3.30;;;8.90;99.90;;;;;;10460379;28;20219;-68
2023/12/09 02:20:06;;;;;;;8.50;3.17;;;8.90;99.90;;;;;;10453855;28;20739;-68
2023/12/09 02:25:11;;;;;;;7.10;3.60;;;8.90;99.90;;;;;;10449602;28;20211;-68
2023/12/09 02:30:20;;;;;;;11.20;3.30;;;8.90;99.90;;;;;;10435470;28;20195;-68
2023/12/09 02:35:26;;;;;;;11.53;3.17;;;8.90;99.90;;;;;;10451437;28;21840;-68
2023/12/09 02:40:32;;;;;;;9.73;3.53;;;9.00;99.90;;;;;;10452038;28;20206;-67
2023/12/09 02:45:36;;;;;;;10.30;3.43;;;9.00;99.90;;;;;;10446711;28;20250;-67
2023/12/09 02:50:40;;;;;;;10.60;3.37;;;8.90;99.90;;;;;;10420279;28;20278;-68
2023/12/09 02:55:45;;;;;;;9.73;3.77;;;8.90;99.90;;;;;;10457100;28;20918;-68
2023/12/09 03:00:49;;;;;;;13.07;3.90;;;8.90;99.90;;;;;;10404577;28;20216;-65
2023/12/09 03:05:52;;;;;;;13.57;3.97;;;8.90;99.90;;;;;;10417292;28;20230;-65
2023/12/09 03:10:57;;;;;;;12.00;4.10;;;8.80;99.90;;;;;;10465601;28;20219;-65
2023/12/09 03:16:04;;;;;;;14.80;3.77;;;8.80;99.90;;;;;;10440302;28;20227;-66
2023/12/09 03:21:13;;;;;;;11.37;3.73;;;8.80;99.90;;;;;;10420398;28;20697;-66
2023/12/09 03:26:19;;;;;;;13.77;3.90;;;8.80;99.90;;;;;;10450405;28;20199;-66
2023/12/09 03:31:23;;;;;;;13.30;3.87;;;8.70;99.90;;;;;;10425604;28;20227;-66
2023/12/09 03:36:26;;;;;;;13.90;3.70;;;8.70;99.90;;;;;;10451798;28;20266;-65
2023/12/09 03:41:31;;;;;;;9.73;4.00;;;8.70;99.90;;;;;;10468954;28;20597;-65
2023/12/09 03:46:35;;;;;;;11.53;4.43;;;8.60;99.90;;;;;;10440071;28;20200;-66
2023/12/09 03:51:38;;;;;;;12.93;3.77;;;8.60;99.90;;;;;;10435710;28;20690;-66
2023/12/09 03:56:44;;;;;;;11.27;4.30;;;8.60;99.90;;;;;;10456900;28;20270;-65
2023/12/09 04:01:48;;;;;;;14.80;3.90;;;8.60;99.90;;;;;;10452076;28;20224;-65
2023/12/09 04:06:52;;;;;;;11.77;3.97;;;8.50;99.90;;;;;;10437268;28;20204;-65
2023/12/09 04:11:57;;;;;;;7.77;3.53;;;8.50;99.90;;;;;;10460319;28;20215;-66
2023/12/09 04:17:00;;;;;;;13.40;3.83;;;8.50;99.90;;;;;;10461590;28;20269;-65
2023/12/09 04:22:04;;;;;;;10.47;3.23;;;8.50;99.90;;;;;;10442452;28;20223;-66
2023/12/09 04:27:09;;;;;;;6.93;2.73;;;8.50;99.90;;;;;;10450451;28;20762;-66
2023/12/09 04:32:13;;;;;;;13.00;3.23;;;8.40;99.90;;;;;;10444784;28;20222;-66
2023/12/09 04:37:16;;;;;;;13.13;3.80;;;8.50;99.90;;;;;;10451496;28;20237;-66
2023/12/09 04:42:21;;;;;;;6.67;3.13;;;8.40;99.90;;;;;;10447408;28;20590;-66
2023/12/09 04:47:25;;;;;;;10.53;3.63;;;8.40;99.90;;;;;;10450818;28;20203;-65
2023/12/09 04:52:28;;;;;;;9.00;3.43;;;8.40;99.90;;;;;;10411717;28;20227;-65
2023/12/09 04:57:33;;;;;;;8.67;3.10;;;8.40;99.90;;;;;;10449700;28;20220;-65
2023/12/09 05:02:37;;;;;;;11.03;3.47;;;8.40;99.90;;;;;;10444230;28;20223;-66
2023/12/09 05:07:41;;;;;;;8.87;3.70;;;8.40;99.90;;;;;;10448900;28;20191;-66
2023/12/09 05:12:45;;;;;;;10.50;3.50;;;8.40;99.90;;;;;;10456881;28;20240;-66
2023/12/09 05:17:49;;;;;;;9.47;3.40;;;8.30;99.90;;;;;;10438593;28;20868;-65
2023/12/09 05:22:52;;;;;;;9.67;3.57;;;8.30;99.90;;;;;;10442816;28;20246;-65
2023/12/09 05:27:57;;;;;;;7.90;3.07;;;8.30;99.90;;;;;;10433526;28;20226;-67
2023/12/09 05:33:01;;;;;;;8.80;3.47;;;8.30;99.90;;;;;;10442762;28;20231;-65
2023/12/09 05:38:05;;;;;;;9.80;3.50;;;8.30;99.90;;;;;;10441833;28;20220;-63
2023/12/09 05:43:09;;;;;;;8.50;3.30;;;8.30;99.90;;;;;;10440003;28;20227;-65
2023/12/09 05:48:13;;;;;;;8.70;3.20;;;8.30;99.90;;;;;;10441632;28;20192;-65
2023/12/09 05:53:17;;;;;;;9.63;3.30;;;8.30;99.90;;;;;;10444127;28;20217;-65
2023/12/09 05:58:22;;;;;;;9.70;3.27;;;8.30;99.90;;;;;;10444786;28;20223;-65
2023/12/09 06:03:25;;;;;;;13.47;3.07;;;8.30;99.90;;;;;;10445305;28;20705;-65
2023/12/09 06:08:29;;;;;;;7.70;3.20;;;8.20;99.90;;;;;;10457218;28;20199;-65
2023/12/09 06:13:34;;;;;;;7.57;3.30;;;8.20;99.90;;;;;;10437022;28;20261;-65
2023/12/09 06:18:37;;;;;;;9.17;3.03;;;8.20;99.90;;;;;;10435124;28;20265;-66
2023/12/09 06:23:41;;;;;;;11.03;3.47;;;8.20;99.90;;;;;;10450408;28;20224;-65
2023/12/09 06:28:46;;;;;;;12.07;2.93;;;8.20;99.90;;;;;;10432064;28;20263;-66
2023/12/09 06:33:49;;;;;;;8.38;2.92;;;8.20;99.90;;;;;;10448080;28;20442;-64
2023/12/09 06:38:53;;;;;;;7.37;2.60;;;8.20;99.90;;;;;;10453885;28;20245;-65
2023/12/09 06:43:58;;;;;;;7.60;2.47;;;8.20;99.90;;;;;;10455511;28;20224;-64
2023/12/09 06:49:01;;;;;;;8.73;3.37;;;8.20;99.90;;;;;;10440190;28;20246;-64
2023/12/09 06:54:08;;;;;;;9.70;3.40;;;8.10;99.90;;;;;;10447182;28;20273;-64
2023/12/09 06:59:13;;;;;;;5.27;2.90;;;8.20;99.90;;;;;;10399237;28;20595;-64
2023/12/09 07:04:22;;;;;;;6.27;3.07;;;8.20;99.90;;;;;;10420981;28;20227;-63
2023/12/09 07:09:27;;;;;;;5.57;3.23;;;8.10;99.90;;;;;;10424875;28;20199;-64
2023/12/09 07:14:33;;;;;;;6.77;2.77;;;8.10;99.90;;;;;;10363412;28;20231;-66
2023/12/09 07:19:37;;;;;;;4.13;2.73;;;8.10;99.90;;;;;;10443035;28;20273;-65
2023/12/09 07:24:40;;;;;;;4.97;2.20;;;8.20;99.90;;;;;;10444557;28;20597;-66
2023/12/09 07:29:45;;;;;;;8.17;2.57;;;8.20;99.90;;;;;;10412078;28;20196;-65
2023/12/09 07:34:49;;;;;;;4.30;2.70;;;8.20;99.90;;;;;;10444274;28;20220;-67
2023/12/09 07:39:54;;;;;;;4.37;2.23;;;8.20;99.90;;;;;;10419422;28;20212;-65
2023/12/09 07:44:59;;;;;;;6.37;1.87;;;8.20;99.90;;;;;;10428612;28;20273;-66
2023/12/09 07:50:02;;;;;;;9.00;2.10;;;8.30;99.90;;;;;;10427945;28;20265;-67
2023/12/09 07:55:07;;;;;;;5.47;1.97;;;8.30;99.90;;;;;;10418816;28;20246;-65
2023/12/09 08:00:13;;;;;;;4.57;1.97;;;8.40;99.90;;;;;;10441209;28;20215;-67
2023/12/09 08:05:17;;;;;;;4.00;1.70;;;8.40;99.90;;;;;;10435615;28;20705;-62
2023/12/09 08:10:21;;;;;;;4.73;2.10;;;8.40;99.90;;;;;;10440570;28;21691;-62
2023/12/09 08:15:26;;;;;;;9.00;2.17;;;8.50;99.90;;;;;;10436727;28;20211;-64
2023/12/09 08:20:29;;;;;;;6.03;2.07;;;8.50;99.90;;;;;;10438233;28;20724;-62
2023/12/09 08:25:33;;;;;;;6.93;2.33;;;8.50;99.90;;;;;;10437720;28;20799;-62
2023/12/09 08:30:39;;;;;;;3.77;1.80;;;8.60;99.90;;;;;;10436851;28;20200;-62
2023/12/09 08:35:42;;;;;;;4.50;2.17;;;8.60;99.90;;;;;;10455053;28;20243;-62
2023/12/09 08:40:46;;;;;;;6.93;2.67;;;8.60;99.90;;;;;;10436303;28;20278;-67
2023/12/09 08:45:51;;;;;;;6.97;1.83;;;8.60;99.90;;;;;;10430119;28;20208;-63
2023/12/09 08:50:54;;;;;;;7.27;2.23;;;8.70;99.90;;;;;;10437346;28;20218;-63
2023/12/09 08:55:58;;;;;;;7.27;2.30;;;8.70;99.90;;;;;;10456724;28;20333;-63
2023/12/09 09:01:03;;;;;;;6.27;1.97;;;8.80;99.90;;;;;;10458658;28;20603;-61
2023/12/09 09:06:07;;;;;;;7.50;2.80;;;8.80;99.90;;;;;;10458283;28;20204;-62
2023/12/09 09:11:12;;;;;;;5.60;2.37;;;8.90;99.90;;;;;;10451600;28;20215;-63
2023/12/09 09:16:17;;;;;;;8.03;3.10;;;8.90;99.90;;;;;;10447746;28;20208;-63
2023/12/09 09:21:24;;;;;;;5.73;2.20;;;9.00;99.90;;;;;;10454146;28;20227;-65
2023/12/09 09:26:27;;;;;;;7.67;2.70;;;9.00;99.90;;;;;;10399380;28;20203;-64
2023/12/09 09:31:32;;;;;;;5.90;2.17;;;9.00;99.90;;;;;;10422956;28;20248;-65
2023/12/09 09:36:36;;;;;;;9.07;2.50;;;9.10;99.90;;;;;;10439443;28;20584;-62
2023/12/09 09:41:47;;;;;;;6.70;2.63;;;9.10;99.90;;;;;;10450480;28;20663;-66
2023/12/09 09:46:57;;;;;;;5.77;2.80;;;9.20;99.90;;;;;;10438687;28;20199;-65
2023/12/09 09:52:03;;;;;;;5.07;2.33;;;9.30;99.90;;;;;;10453634;28;20282;-67
2023/12/09 09:57:08;;;;;;;5.17;2.50;;;9.30;99.90;;;;;;10442778;28;20200;-66
2023/12/09 10:02:15;;;;;;;7.30;2.60;;;9.40;99.90;;;;;;10448673;28;20734;-64
2023/12/09 10:07:25;;;;;;;9.80;3.10;;;9.40;99.90;;;;;;10413341;28;20217;-65
2023/12/09 10:12:28;;;;;;;6.47;2.90;;;9.40;99.90;;;;;;10465543;28;20658;-66
2023/12/09 10:17:34;;;;;;;7.47;2.40;;;9.50;99.90;;;;;;10447608;28;20216;-64
2023/12/09 10:22:39;;;;;;;6.33;2.60;;;9.50;99.90;;;;;;10444042;28;20752;-65
2023/12/09 10:27:44;;;;;;;6.50;2.53;;;9.50;99.90;;;;;;10417904;28;20610;-65
2023/12/09 10:32:49;;;;;;;7.00;2.33;;;9.50;99.90;;;;;;10447968;28;20270;-65
2023/12/09 10:37:54;;;;;;;10.40;2.13;;;9.50;99.90;;;;;;10445933;28;20213;-65
2023/12/09 10:43:00;;;;;;;7.57;2.43;;;9.50;99.90;;;;;;10437366;28;20258;-65
2023/12/09 10:48:06;;;;;;;7.77;2.30;;;9.50;99.90;;;;;;10448621;28;20191;-67
2023/12/09 10:53:10;;;;;;;7.93;2.50;;;9.60;99.90;;;;;;10451040;28;20219;-68
2023/12/09 10:58:15;;;;;;;8.30;3.07;;;9.60;99.90;;;;;;10450994;28;20222;-67
2023/12/09 11:03:21;;;;;;;14.60;9.67;;;9.70;99.90;;;;;;10457251;28;20640;-67
2023/12/09 11:08:28;;;;;;;10.77;5.53;;;9.70;99.90;;;;;;10446691;28;20242;-65
2023/12/09 11:13:34;;;;;;;22.27;19.97;;;9.70;99.90;;;;;;10432931;28;20718;-63
2023/12/09 11:18:47;;;;;;;7.33;2.50;;;9.80;99.90;;;;;;10426453;28;20276;-63
2023/12/09 11:23:52;;;;;;;9.00;2.83;;;9.80;99.90;;;;;;10439434;28;20311;-64
2023/12/09 11:29:00;;;;;;;7.70;2.30;;;9.80;99.90;;;;;;10446954;28;20196;-64
2023/12/09 11:34:07;;;;;;;10.93;3.10;;;9.90;99.90;;;;;;10445884;28;20587;-65
2023/12/09 11:39:14;;;;;;;9.63;2.70;;;9.90;99.90;;;;;;10438635;28;20660;-65
2023/12/09 11:44:18;;;;;;;10.07;2.73;;;9.90;99.90;;;;;;10446791;28;20243;-66
2023/12/09 11:49:25;;;;;;;6.83;2.57;;;9.90;99.90;;;;;;10443751;28;20215;-60
2023/12/09 11:54:28;;;;;;;7.33;2.40;;;9.90;99.90;;;;;;10437633;28;20698;-63
2023/12/09 11:59:33;;;;;;;7.72;2.47;;;9.90;99.90;;;;;;10446505;28;20227;-63
2023/12/09 12:04:39;;;;;;;6.07;2.10;;;9.90;99.90;;;;;;10431100;28;20223;-59
2023/12/09 12:09:42;;;;;;;6.90;2.60;;;9.90;99.90;;;;;;10436939;28;20581;-64
2023/12/09 12:14:47;;;;;;;11.03;2.90;;;9.90;99.90;;;;;;10442917;28;20294;-64
2023/12/09 12:19:52;;;;;;;10.10;2.83;;;9.90;99.90;;;;;;10444487;28;20227;-66
2023/12/09 12:24:56;;;;;;;10.73;3.23;;;9.90;99.90;;;;;;10426736;28;20220;-62
2023/12/09 12:29:59;;;;;;;6.23;2.50;;;9.90;99.90;;;;;;10437118;28;20195;-65
2023/12/09 12:35:06;;;;;;;8.50;2.70;;;9.90;99.90;;;;;;10432859;28;20235;-67
2023/12/09 12:40:11;;;;;;;8.63;2.40;;;9.80;99.90;;;;;;10451258;28;20223;-66
2023/12/09 12:45:18;;;;;;;4.67;2.43;;;9.80;99.90;;;;;;10452900;28;20265;-64
2023/12/09 12:50:24;;;;;;;7.50;2.20;;;9.80;99.90;;;;;;10447832;28;20724;-64
2023/12/09 12:55:27;;;;;;;10.70;2.47;;;9.80;99.90;;;;;;10444498;28;20208;-67
2023/12/09 13:00:31;;;;;;;6.60;2.03;;;9.80;99.90;;;;;;10453514;28;20706;-64
2023/12/09 13:05:38;;;;;;;7.37;2.43;;;9.90;99.90;;;;;;10446741;28;20203;-65
2023/12/09 13:10:41;;;;;;;9.00;2.57;;;9.90;99.90;;;;;;10428064;28;20198;-65
2023/12/09 13:15:45;;;;;;;6.30;2.23;;;10.00;99.90;;;;;;10467381;28;20207;-65
2023/12/09 13:20:52;;;;;;;6.93;2.60;;;10.10;99.90;;;;;;10451178;28;20248;-65
2023/12/09 13:25:55;;;;;;;6.70;2.67;;;10.10;99.90;;;;;;10447396;28;20254;-65
2023/12/09 13:30:59;;;;;;;5.30;2.10;;;10.10;99.90;;;;;;10443491;28;20579;-63
2023/12/09 13:36:05;;;;;;;7.77;2.23;;;10.10;99.90;;;;;;10441521;28;20215;-65
2023/12/09 13:41:09;;;;;;;4.93;2.37;;;10.10;99.90;;;;;;10446673;28;20284;-62
2023/12/09 13:46:13;;;;;;;6.78;2.38;;;10.00;99.90;;;;;;10450117;28;20256;-64
2023/12/09 13:51:18;;;;;;;6.40;2.70;;;10.00;99.90;;;;;;10467745;28;20215;-62
2023/12/09 13:56:22;;;;;;;4.60;2.37;;;10.00;99.90;;;;;;10455801;28;20199;-64
2023/12/09 14:01:25;;;;;;;6.07;3.00;;;9.90;99.90;;;;;;10448564;28;20250;-67
2023/12/09 14:06:31;;;;;;;3.93;2.60;;;9.90;99.90;;;;;;10452327;28;20206;-67
2023/12/09 14:11:35;;;;;;;7.30;3.10;;;9.90;99.90;;;;;;10438375;28;20216;-65
2023/12/09 14:16:40;;;;;;;6.23;3.37;;;9.90;99.90;;;;;;10487334;22;20224;-73
2023/12/09 14:21:45;;;;;;;8.23;2.90;;;9.80;99.90;;;;;;10397285;28;20861;-69
2023/12/09 14:26:49;;;;;;;6.25;2.22;;;9.80;99.90;;;;;;10399498;28;20253;-69
2023/12/09 14:31:52;;;;;;;5.07;2.20;;;9.80;99.90;;;;;;10394864;28;20784;-71
2023/12/09 14:36:57;;;;;;;3.70;2.20;;;9.70;99.90;;;;;;10347673;28;20255;-72
2023/12/09 14:42:08;;;;;;;5.17;2.30;;;9.70;99.90;;;;;;10394498;28;20225;-71
2023/12/09 14:47:20;;;;;;;5.05;2.25;;;9.60;99.90;;;;;;10395347;28;20195;-69
2023/12/09 14:52:29;;;;;;;5.70;2.53;;;9.50;99.90;;;;;;10403031;28;20224;-66
2023/12/09 14:57:33;;;;;;;5.20;2.03;;;9.40;99.90;;;;;;10401400;28;20204;-69
2023/12/09 15:02:37;;;;;;;6.30;2.60;;;9.40;99.90;;;;;;10399008;28;20224;-68
2023/12/09 15:07:43;;;;;;;8.07;2.85;;;9.40;99.90;;;;;;10399073;28;20328;-68
2023/12/09 15:12:47;;;;;;;7.80;3.37;;;9.30;99.90;;;;;;10395970;28;20232;-69
2023/12/09 15:17:51;;;;;;;5.33;2.07;;;9.30;99.90;;;;;;10398183;28;20291;-66
2023/12/09 15:22:58;;;;;;;6.50;2.97;;;9.20;99.90;;;;;;10400469;28;20642;-70
2023/12/09 15:28:01;;;;;;;3.90;2.10;;;9.20;99.90;;;;;;10398208;28;20753;-69
2023/12/09 15:33:05;;;;;;;4.07;2.37;;;9.10;99.90;;;;;;10399055;28;20216;-69
2023/12/09 15:38:11;;;;;;;3.97;2.20;;;9.10;99.90;;;;;;10399188;28;20200;-68
2023/12/09 15:43:14;;;;;;;4.77;2.13;;;9.00;99.90;;;;;;10393879;28;20232;-70
2023/12/09 15:48:18;;;;;;;9.77;4.27;;;9.00;99.90;;;;;;10399776;28;20199;-69
2023/12/09 15:53:23;;;;;;;6.33;2.90;;;9.00;99.90;;;;;;10399672;28;20262;-69
2023/12/09 15:58:27;;;;;;;5.93;2.20;;;8.90;99.90;;;;;;10400344;28;20542;-68
2023/12/09 16:03:31;;;;;;;1.40;0.90;;;8.90;99.90;;;;;;10397856;28;20232;-70
2023/12/09 16:08:37;;;;;;;9.43;3.50;;;8.90;99.90;;;;;;10407113;28;20337;-70
2023/12/09 16:13:41;;;;;;;3.33;1.70;;;8.90;99.90;;;;;;10402821;28;20799;-70
2023/12/09 16:18:45;;;;;;;1.63;1.00;;;8.90;99.90;;;;;;10401696;28;20200;-69
2023/12/09 16:23:50;;;;;;;5.37;2.27;;;8.80;99.90;;;;;;10403615;28;20228;-69
2023/12/09 16:28:54;;;;;;;3.37;1.43;;;8.80;99.90;;;;;;10407559;28;20201;-68
2023/12/09 16:33:58;;;;;;;1.47;0.80;;;8.80;99.90;;;;;;10406709;28;20212;-69
2023/12/09 16:39:03;;;;;;;2.63;1.23;;;8.80;99.90;;;;;;10405040;28;20196;-69
2023/12/09 16:44:07;;;;;;;0.90;0.60;;;8.80;99.90;;;;;;10404181;28;20223;-70
2023/12/09 16:49:14;;;;;;;5.57;2.60;;;8.80;99.90;;;;;;10405874;28;20251;-67
2023/12/09 16:54:20;;;;;;;2.20;1.25;;;8.80;99.90;;;;;;10404161;28;20472;-66
2023/12/09 17:03:35;;;;;;;3.60;2.40;;;9.10;99.90;;;;;;10585090;27;20493;-69
2023/12/09 17:08:39;;;;;;;1.27;1.00;;;9.00;99.90;;;;;;10569586;28;20243;-68
2023/12/09 17:13:42;;;;;;;3.53;1.43;;;9.00;99.90;;;;;;10538147;28;20221;-69
2023/12/09 17:18:50;;;;;;;2.20;1.17;;;9.10;99.90;;;;;;10562707;28;20294;-66
2023/12/09 17:23:54;;;;;;;2.00;1.10;;;9.00;99.90;;;;;;10489763;22;20227;-65
2023/12/09 17:28:58;;;;;;;2.33;1.60;;;9.00;99.90;;;;;;10436742;28;20203;-65
2023/12/09 17:34:05;;;;;;;2.63;1.07;;;9.00;99.90;;;;;;10443059;28;20223;-66
2023/12/09 17:39:10;;;;;;;3.40;2.00;;;9.00;99.90;;;;;;10441012;28;20759;-63
2023/12/09 17:44:14;;;;;;;5.13;1.90;;;9.00;99.90;;;;;;10438093;28;20220;-64
2023/12/09 17:49:20;;;;;;;4.27;2.33;;;9.00;99.90;;;;;;10409977;28;20202;-64
2023/12/09 17:54:23;;;;;;;2.97;1.70;;;9.00;99.90;;;;;;10431118;28;20647;-64
2023/12/09 17:59:28;;;;;;;3.80;1.80;;;9.00;99.90;;;;;;10442515;28;20219;-66
2023/12/09 18:04:33;;;;;;;5.60;1.93;;;9.00;99.90;;;;;;10439320;28;20220;-66
2023/12/09 18:09:37;;;;;;;1.93;0.80;;;9.00;99.90;;;;;;10429411;28;20242;-65
2023/12/09 18:14:40;;;;;;;2.53;1.30;;;9.00;99.90;;;;;;10408224;28;20242;-66
2023/12/09 18:19:46;;;;;;;4.43;2.30;;;9.10;99.90;;;;;;10403964;28;20258;-66
2023/12/09 18:24:50;;;;;;;4.37;2.47;;;9.10;99.90;;;;;;10400561;28;20286;-68
2023/12/09 18:29:54;;;;;;;3.23;1.60;;;9.10;99.90;;;;;;10403509;28;20266;-66
2023/12/09 18:35:07;;;;;;;2.20;0.97;;;9.10;99.90;;;;;;10403367;28;20228;-67
2023/12/09 18:40:12;;;;;;;3.53;2.23;;;9.10;99.90;;;;;;10406154;28;20228;-67
2023/12/09 18:45:16;;;;;;;1.93;1.20;;;9.10;99.90;;;;;;10406969;28;21603;-67
2023/12/09 18:50:27;;;;;;;1.97;1.10;;;9.10;99.90;;;;;;10364773;28;20200;-67
2023/12/09 18:55:31;;;;;;;0.73;0.70;;;9.10;99.90;;;;;;10350149;28;20270;-68
2023/12/09 19:00:36;;;;;;;5.53;2.17;;;9.20;99.90;;;;;;10409826;28;20239;-67
2023/12/09 19:05:41;;;;;;;1.73;1.63;;;9.20;99.90;;;;;;10404288;28;20192;-67
2023/12/09 19:10:45;;;;;;;2.07;1.40;;;9.20;99.90;;;;;;10407890;28;20232;-68
2023/12/09 19:15:49;;;;;;;1.70;1.27;;;9.30;99.90;;;;;;10408674;28;20808;-67
2023/12/09 19:20:54;;;;;;;3.43;1.50;;;9.30;99.90;;;;;;10407675;28;20224;-67
2023/12/09 19:25:57;;;;;;;3.03;1.80;;;9.40;99.90;;;;;;10382129;28;20716;-68
2023/12/09 19:31:01;;;;;;;2.20;2.00;;;9.40;99.90;;;;;;10404776;28;20223;-68
2023/12/09 19:36:07;;;;;;;4.40;2.77;;;9.40;99.90;;;;;;10406102;28;20207;-66
2023/12/09 19:41:11;;;;;;;2.50;2.30;;;9.50;99.90;;;;;;10402843;28;20224;-67
2023/12/09 19:46:14;;;;;;;3.80;2.90;;;9.50;99.90;;;;;;10410571;28;20647;-67
2023/12/09 19:51:20;;;;;;;4.40;3.23;;;9.50;99.90;;;;;;10408255;28;20216;-68
2023/12/09 19:56:24;;;;;;;7.13;3.90;;;9.60;99.90;;;;;;10405026;28;20200;-67
2023/12/09 20:01:27;;;;;;;5.33;3.90;;;9.60;99.90;;;;;;10409418;28;20250;-67
2023/12/09 20:06:33;;;;;;;5.67;3.37;;;9.70;99.90;;;;;;10408380;28;20255;-68
2023/12/09 20:11:38;;;;;;;4.43;3.27;;;9.70;99.90;;;;;;10402539;28;20251;-68
2023/12/09 20:16:42;;;;;;;6.63;4.43;;;9.70;99.90;;;;;;10407062;28;20264;-70
2023/12/09 20:21:48;;;;;;;7.67;4.37;;;9.80;99.90;;;;;;10404564;28;20270;-68
2023/12/09 20:26:52;;;;;;;7.03;5.40;;;9.80;99.90;;;;;;10408128;28;20569;-69
2023/12/09 20:31:55;;;;;;;7.17;5.13;;;9.80;99.90;;;;;;10410106;28;20204;-66
2023/12/09 20:37:01;;;;;;;7.23;5.80;;;9.80;99.90;;;;;;10412527;28;20844;-67
2023/12/09 20:42:05;;;;;;;10.23;6.87;;;9.90;99.90;;;;;;10405155;28;20228;-65
2023/12/09 20:47:09;;;;;;;9.80;5.90;;;9.90;99.90;;;;;;10405034;28;20623;-67
2023/12/09 20:52:14;;;;;;;7.10;5.70;;;10.00;99.90;;;;;;10404555;28;20216;-67
2023/12/09 20:57:18;;;;;;;9.73;7.10;;;10.00;99.90;;;;;;10407073;28;20201;-67
2023/12/09 21:02:23;;;;;;;9.80;5.10;;;10.00;99.90;;;;;;10409016;28;20294;-67
2023/12/09 21:07:28;;;;;;;10.97;5.30;;;10.00;99.90;;;;;;10405472;28;20258;-66
2023/12/09 21:12:32;;;;;;;11.00;5.30;;;10.00;99.90;;;;;;10408031;28;20266;-65
2023/12/09 21:17:36;;;;;;;14.33;6.53;;;10.00;99.90;;;;;;10407292;28;20204;-66
2023/12/09 21:22:41;;;;;;;14.27;4.63;;;10.00;99.90;;;;;;10405025;28;20322;-67
2023/12/09 21:27:45;;;;;;;14.63;5.27;;;10.00;99.90;;;;;;10405387;28;20223;-66
2023/12/09 21:32:49;;;;;;;14.73;4.73;;;10.10;99.90;;;;;;10410290;28;20266;-67
2023/12/09 21:37:54;;;;;;;17.20;4.33;;;10.10;99.90;;;;;;10409384;28;20208;-65
2023/12/09 21:42:58;;;;;;;17.83;4.53;;;10.10;99.90;;;;;;10405614;28;20643;-67
2023/12/09 21:48:03;;;;;;;21.97;5.10;;;10.20;99.90;;;;;;10410308;28;20659;-67
2023/12/09 21:53:08;;;;;;;18.97;4.20;;;10.20;99.90;;;;;;10412823;28;20224;-66
2023/12/09 21:58:12;;;;;;;19.50;4.23;;;10.20;99.90;;;;;;10412035;28;20196;-68
2023/12/09 22:03:16;;;;;;;17.07;4.70;;;10.30;99.90;;;;;;10400689;28;20231;-68
2023/12/09 22:08:21;;;;;;;24.63;4.57;;;10.30;99.90;;;;;;10413829;28;20707;-66
2023/12/09 22:13:25;;;;;;;18.93;4.60;;;10.30;99.90;;;;;;10408233;28;20585;-66
2023/12/09 22:18:29;;;;;;;19.07;3.87;;;10.30;99.90;;;;;;10406203;28;20250;-68
2023/12/09 22:23:34;;;;;;;21.77;4.93;;;10.30;99.90;;;;;;10411306;28;20225;-68
2023/12/09 22:28:39;;;;;;;22.63;4.37;;;10.30;99.90;;;;;;10411308;28;20790;-65
2023/12/09 22:33:45;;;;;;;15.67;4.57;;;10.30;99.90;;;;;;10409371;28;20224;-66
2023/12/09 22:38:51;;;;;;;17.97;4.70;;;10.20;99.90;;;;;;10412113;28;20235;-66
2023/12/09 22:43:55;;;;;;;22.30;5.30;;;10.20;99.90;;;;;;10412479;28;20741;-65
2023/12/09 22:48:59;;;;;;;19.00;5.03;;;10.20;99.90;;;;;;10411512;28;20569;-64
2023/12/09 22:54:05;;;;;;;21.17;5.33;;;10.20;99.90;;;;;;10406043;28;20296;-67
2023/12/09 22:59:09;;;;;;;20.30;5.20;;;10.20;99.90;;;;;;10408736;28;20223;-66
2023/12/09 23:04:13;;;;;;;24.10;4.80;;;10.20;99.90;;;;;;10407603;28;20600;-67
2023/12/09 23:09:18;;;;;;;23.37;5.57;;;10.30;99.90;;;;;;10405146;28;20244;-64
2023/12/09 23:14:22;;;;;;;23.42;4.68;;;10.30;99.90;;;;;;10411646;28;20885;-64
2023/12/09 23:19:25;;;;;;;24.63;5.07;;;10.30;99.90;;;;;;10406322;28;20197;-65
2023/12/09 23:24:31;;;;;;;25.80;5.40;;;10.30;99.90;;;;;;10409702;28;20227;-65
2023/12/09 23:29:34;;;;;;;27.27;5.40;;;10.30;99.90;;;;;;10414438;28;20196;-66
2023/12/09 23:34:38;;;;;;;22.37;5.00;;;10.40;99.90;;;;;;10411850;28;20216;-66
2023/12/09 23:39:43;;;;;;;24.67;4.77;;;10.40;99.90;;;;;;10412813;28;20199;-66
2023/12/09 23:44:47;;;;;;;15.77;4.80;;;10.40;99.90;;;;;;10412527;28;20266;-65
2023/12/09 23:49:50;;;;;;;21.97;4.33;;;10.40;99.90;;;;;;10412388;28;20200;-63
2023/12/09 23:54:55;;;;;;;26.87;5.27;;;10.40;99.90;;;;;;10406636;28;20270;-63
2023/12/09 23:59:59;;;;;;;26.17;5.43;;;10.40;99.90;;;;;;10402375;28;20199;-63
